sensor_id;sensor_type;location;lat;lon;timestamp;temperature;humidity
11320;DHT22;5715;48.234;14.320;2024-03-08T00:01:25;4.10;99.90
11320;DHT22;5715;48.234;14.320;2024-03-08T00:04:12;4.10;99.90
11320;DHT22;5715;48.234;14.320;2024-03-08T00:07:00;4.00;99.90
11320;DHT22;5715;48.234;14.320;2024-03-08T00:09:48;4.00;99.90
11320;DHT22;5715;48.234;14.320;2024-03-08T00:12:36;4.00;99.90
11320;DHT22;5715;48.234;14.320;2024-03-08T00:15:25;4.00;99.90
11320;DHT22;5715;48.234;14.320;2024-03-08T00:18:13;3.90;99.90
11320;DHT22;5715;48.234;14.320;2024-03-08T00:21:00;3.90;99.90
11320;DHT22;5715;48.234;14.320;2024-03-08T00:23:48;3.80;99.90
11320;DHT22;5715;48.234;14.320;2024-03-08T00:26:36;3.70;99.90
11320;DHT22;5715;48.234;14.320;2024-03-08T00:29:24;3.70;99.90
11320;DHT22;5715;48.234;14.320;2024-03-08T00:32:12;3.70;99.90
11320;DHT22;5715;48.234;14.320;2024-03-08T00:35:00;3.60;99.90
11320;DHT22;5715;48.234;14.320;2024-03-08T00:37:48;3.60;99.90
11320;DHT22;5715;48.234;14.320;2024-03-08T00:40:35;3.50;99.90
11320;DHT22;5715;48.234;14.320;2024-03-08T00:43:23;3.50;99.90
11320;DHT22;5715;48.234;14.320;2024-03-08T00:46:11;3.40;99.90
11320;DHT22;5715;48.234;14.320;2024-03-08T00:48:59;3.40;99.90
11320;DHT22;5715;48.234;14.320;2024-03-08T00:51:47;3.30;99.90
11320;DHT22;5715;48.234;14.320;2024-03-08T00:54:35;3.30;99.90
11320;DHT22;5715;48.234;14.320;2024-03-08T00:57:25;3.20;99.90
11320;DHT22;5715;48.234;14.320;2024-03-08T01:00:13;3.20;99.90
11320;DHT22;5715;48.234;14.320;2024-03-08T01:03:01;3.20;99.90
11320;DHT22;5715;48.234;14.320;2024-03-08T01:05:50;3.10;99.90
11320;DHT22;5715;48.234;14.320;2024-03-08T01:08:38;3.10;99.90
11320;DHT22;5715;48.234;14.320;2024-03-08T01:11:29;3.00;99.90
11320;DHT22;5715;48.234;14.320;2024-03-08T01:14:19;3.00;99.90
11320;DHT22;5715;48.234;14.320;2024-03-08T01:17:06;3.00;99.90
11320;DHT22;5715;48.234;14.320;2024-03-08T01:19:54;3.00;99.90
11320;DHT22;5715;48.234;14.320;2024-03-08T01:22:42;2.90;99.90
11320;DHT22;5715;48.234;14.320;2024-03-08T01:25:30;2.90;99.90
11320;DHT22;5715;48.234;14.320;2024-03-08T01:28:19;2.90;99.90
11320;DHT22;5715;48.234;14.320;2024-03-08T01:31:07;2.80;99.90
11320;DHT22;5715;48.234;14.320;2024-03-08T01:33:55;2.80;99.90
11320;DHT22;5715;48.234;14.320;2024-03-08T01:36:44;2.80;99.90
11320;DHT22;5715;48.234;14.320;2024-03-08T01:39:32;2.80;99.90
11320;DHT22;5715;48.234;14.320;2024-03-08T01:42:20;2.70;99.90
11320;DHT22;5715;48.234;14.320;2024-03-08T01:45:09;2.70;99.90
11320;DHT22;5715;48.234;14.320;2024-03-08T01:47:57;2.70;99.90
11320;DHT22;5715;48.234;14.320;2024-03-08T01:50:45;2.70;99.90
11320;DHT22;5715;48.234;14.320;2024-03-08T01:53:34;2.70;99.90
11320;DHT22;5715;48.234;14.320;2024-03-08T01:56:23;2.60;99.90
11320;DHT22;5715;48.234;14.320;2024-03-08T01:59:13;2.60;99.90
11320;DHT22;5715;48.234;14.320;2024-03-08T02:02:02;2.50;99.90
11320;DHT22;5715;48.234;14.320;2024-03-08T02:04:51;2.60;99.90
11320;DHT22;5715;48.234;14.320;2024-03-08T02:07:43;2.60;99.90
11320;DHT22;5715;48.234;14.320;2024-03-08T02:10:31;2.60;99.90
11320;DHT22;5715;48.234;14.320;2024-03-08T02:13:19;2.50;99.90
11320;DHT22;5715;48.234;14.320;2024-03-08T02:16:07;2.50;99.90
11320;DHT22;5715;48.234;14.320;2024-03-08T02:18:56;2.40;99.90
11320;DHT22;5715;48.234;14.320;2024-03-08T02:21:44;2.40;99.90
11320;DHT22;5715;48.234;14.320;2024-03-08T02:24:34;2.40;99.90
11320;DHT22;5715;48.234;14.320;2024-03-08T02:27:24;2.40;99.90
11320;DHT22;5715;48.234;14.320;2024-03-08T02:30:13;2.40;99.90
11320;DHT22;5715;48.234;14.320;2024-03-08T02:33:01;2.40;99.90
11320;DHT22;5715;48.234;14.320;2024-03-08T02:35:49;2.30;99.90
11320;DHT22;5715;48.234;14.320;2024-03-08T02:38:38;2.30;99.90
11320;DHT22;5715;48.234;14.320;2024-03-08T02:41:28;2.30;99.90
11320;DHT22;5715;48.234;14.320;2024-03-08T02:44:16;2.50;99.90
11320;DHT22;5715;48.234;14.320;2024-03-08T02:47:04;2.30;99.90
11320;DHT22;5715;48.234;14.320;2024-03-08T02:49:52;2.30;99.90
11320;DHT22;5715;48.234;14.320;2024-03-08T02:52:40;2.30;99.90
11320;DHT22;5715;48.234;14.320;2024-03-08T02:55:29;2.20;99.90
11320;DHT22;5715;48.234;14.320;2024-03-08T02:58:17;2.30;99.90
11320;DHT22;5715;48.234;14.320;2024-03-08T03:01:05;2.20;99.90
11320;DHT22;5715;48.234;14.320;2024-03-08T03:03:53;2.20;99.90
11320;DHT22;5715;48.234;14.320;2024-03-08T03:06:41;2.20;99.90
11320;DHT22;5715;48.234;14.320;2024-03-08T03:09:29;2.20;99.90
11320;DHT22;5715;48.234;14.320;2024-03-08T03:12:16;2.20;99.90
11320;DHT22;5715;48.234;14.320;2024-03-08T03:15:05;2.10;99.90
11320;DHT22;5715;48.234;14.320;2024-03-08T03:17:54;2.10;99.90
11320;DHT22;5715;48.234;14.320;2024-03-08T03:20:42;2.10;99.90
11320;DHT22;5715;48.234;14.320;2024-03-08T03:23:31;2.00;99.90
11320;DHT22;5715;48.234;14.320;2024-03-08T03:26:20;2.00;99.90
11320;DHT22;5715;48.234;14.320;2024-03-08T03:29:09;1.90;99.90
11320;DHT22;5715;48.234;14.320;2024-03-08T03:31:58;1.90;99.90
11320;DHT22;5715;48.234;14.320;2024-03-08T03:34:45;1.80;99.90
11320;DHT22;5715;48.234;14.320;2024-03-08T03:37:33;1.80;99.90
11320;DHT22;5715;48.234;14.320;2024-03-08T03:40:21;1.80;99.90
11320;DHT22;5715;48.234;14.320;2024-03-08T03:43:10;1.80;99.90
11320;DHT22;5715;48.234;14.320;2024-03-08T03:45:58;1.80;99.90
11320;DHT22;5715;48.234;14.320;2024-03-08T03:48:46;1.80;99.90
11320;DHT22;5715;48.234;14.320;2024-03-08T03:51:34;1.80;99.90
11320;DHT22;5715;48.234;14.320;2024-03-08T03:54:22;1.80;99.90
11320;DHT22;5715;48.234;14.320;2024-03-08T03:57:09;1.80;99.90
11320;DHT22;5715;48.234;14.320;2024-03-08T03:59:57;1.80;99.90
11320;DHT22;5715;48.234;14.320;2024-03-08T04:02:46;1.70;99.90
11320;DHT22;5715;48.234;14.320;2024-03-08T04:05:38;1.70;99.90
11320;DHT22;5715;48.234;14.320;2024-03-08T04:08:27;1.70;99.90
11320;DHT22;5715;48.234;14.320;2024-03-08T04:11:15;1.70;99.90
11320;DHT22;5715;48.234;14.320;2024-03-08T04:14:04;1.60;99.90
11320;DHT22;5715;48.234;14.320;2024-03-08T04:16:52;1.60;99.90
11320;DHT22;5715;48.234;14.320;2024-03-08T04:19:42;1.50;99.90
11320;DHT22;5715;48.234;14.320;2024-03-08T04:22:31;1.60;99.90
11320;DHT22;5715;48.234;14.320;2024-03-08T04:25:18;1.60;99.90
11320;DHT22;5715;48.234;14.320;2024-03-08T04:28:07;1.70;99.90
11320;DHT22;5715;48.234;14.320;2024-03-08T04:30:58;1.70;99.90
11320;DHT22;5715;48.234;14.320;2024-03-08T04:33:47;1.70;99.90
11320;DHT22;5715;48.234;14.320;2024-03-08T04:36:35;1.70;99.90
11320;DHT22;5715;48.234;14.320;2024-03-08T04:39:23;1.80;99.90
11320;DHT22;5715;48.234;14.320;2024-03-08T04:42:11;1.70;99.90
11320;DHT22;5715;48.234;14.320;2024-03-08T04:44:59;1.80;99.90
11320;DHT22;5715;48.234;14.320;2024-03-08T04:47:48;1.80;99.90
11320;DHT22;5715;48.234;14.320;2024-03-08T04:50:35;1.80;99.90
11320;DHT22;5715;48.234;14.320;2024-03-08T04:53:23;1.80;99.90
11320;DHT22;5715;48.234;14.320;2024-03-08T04:56:11;1.90;99.90
11320;DHT22;5715;48.234;14.320;2024-03-08T04:58:58;1.90;99.90
11320;DHT22;5715;48.234;14.320;2024-03-08T05:01:46;1.90;99.90
11320;DHT22;5715;48.234;14.320;2024-03-08T05:04:34;1.90;99.90
11320;DHT22;5715;48.234;14.320;2024-03-08T05:07:22;1.90;99.90
11320;DHT22;5715;48.234;14.320;2024-03-08T05:10:10;1.90;99.90
11320;DHT22;5715;48.234;14.320;2024-03-08T05:12:57;2.00;99.90
11320;DHT22;5715;48.234;14.320;2024-03-08T05:15:48;1.90;99.90
11320;DHT22;5715;48.234;14.320;2024-03-08T05:18:37;2.00;99.90
11320;DHT22;5715;48.234;14.320;2024-03-08T05:21:25;2.00;99.90
11320;DHT22;5715;48.234;14.320;2024-03-08T05:24:13;2.00;99.90
11320;DHT22;5715;48.234;14.320;2024-03-08T05:27:05;1.90;99.90
11320;DHT22;5715;48.234;14.320;2024-03-08T05:29:53;1.90;99.90
11320;DHT22;5715;48.234;14.320;2024-03-08T05:32:41;1.90;99.90
11320;DHT22;5715;48.234;14.320;2024-03-08T05:35:33;2.00;99.90
11320;DHT22;5715;48.234;14.320;2024-03-08T05:38:20;2.00;99.90
11320;DHT22;5715;48.234;14.320;2024-03-08T05:41:09;1.90;99.90
11320;DHT22;5715;48.234;14.320;2024-03-08T05:43:57;1.90;99.90
11320;DHT22;5715;48.234;14.320;2024-03-08T05:46:45;1.90;99.90
11320;DHT22;5715;48.234;14.320;2024-03-08T05:49:35;2.00;99.90
11320;DHT22;5715;48.234;14.320;2024-03-08T05:52:23;2.00;99.90
11320;DHT22;5715;48.234;14.320;2024-03-08T05:55:11;2.00;99.90
11320;DHT22;5715;48.234;14.320;2024-03-08T05:58:01;1.90;99.90
11320;DHT22;5715;48.234;14.320;2024-03-08T06:00:49;2.00;99.90
11320;DHT22;5715;48.234;14.320;2024-03-08T06:03:39;2.00;99.90
11320;DHT22;5715;48.234;14.320;2024-03-08T06:06:32;2.10;99.90
11320;DHT22;5715;48.234;14.320;2024-03-08T06:09:20;2.10;99.90
11320;DHT22;5715;48.234;14.320;2024-03-08T06:12:11;2.10;99.90
11320;DHT22;5715;48.234;14.320;2024-03-08T06:14:59;2.10;99.90
11320;DHT22;5715;48.234;14.320;2024-03-08T06:17:47;2.20;99.90
11320;DHT22;5715;48.234;14.320;2024-03-08T06:20:35;2.20;99.90
11320;DHT22;5715;48.234;14.320;2024-03-08T06:23:23;2.30;99.90
11320;DHT22;5715;48.234;14.320;2024-03-08T06:26:10;2.30;99.90
11320;DHT22;5715;48.234;14.320;2024-03-08T06:28:58;2.40;99.90
11320;DHT22;5715;48.234;14.320;2024-03-08T06:31:46;2.40;99.90
11320;DHT22;5715;48.234;14.320;2024-03-08T06:34:33;2.50;99.90
11320;DHT22;5715;48.234;14.320;2024-03-08T06:37:24;2.50;99.90
11320;DHT22;5715;48.234;14.320;2024-03-08T06:40:12;2.60;99.90
11320;DHT22;5715;48.234;14.320;2024-03-08T06:43:02;2.70;99.90
11320;DHT22;5715;48.234;14.320;2024-03-08T06:45:53;2.70;99.90
11320;DHT22;5715;48.234;14.320;2024-03-08T06:48:40;2.80;99.90
11320;DHT22;5715;48.234;14.320;2024-03-08T06:51:28;2.90;99.90
11320;DHT22;5715;48.234;14.320;2024-03-08T06:54:16;3.00;99.90
11320;DHT22;5715;48.234;14.320;2024-03-08T06:57:04;3.00;99.90
11320;DHT22;5715;48.234;14.320;2024-03-08T06:59:53;3.10;99.90
11320;DHT22;5715;48.234;14.320;2024-03-08T07:02:41;3.10;99.90
11320;DHT22;5715;48.234;14.320;2024-03-08T07:05:30;3.20;99.90
11320;DHT22;5715;48.234;14.320;2024-03-08T07:08:18;3.20;99.90
11320;DHT22;5715;48.234;14.320;2024-03-08T07:11:06;3.30;99.90
11320;DHT22;5715;48.234;14.320;2024-03-08T07:13:54;3.40;99.90
11320;DHT22;5715;48.234;14.320;2024-03-08T07:16:41;3.40;99.90
11320;DHT22;5715;48.234;14.320;2024-03-08T07:19:29;3.50;99.90
11320;DHT22;5715;48.234;14.320;2024-03-08T07:22:17;3.60;99.90
11320;DHT22;5715;48.234;14.320;2024-03-08T07:25:05;3.60;99.90
11320;DHT22;5715;48.234;14.320;2024-03-08T07:28:09;3.60;99.90
11320;DHT22;5715;48.234;14.320;2024-03-08T07:31:00;3.70;99.90
11320;DHT22;5715;48.234;14.320;2024-03-08T07:34:08;3.80;99.90
11320;DHT22;5715;48.234;14.320;2024-03-08T07:36:55;3.90;99.90
11320;DHT22;5715;48.234;14.320;2024-03-08T07:39:44;4.00;99.90
11320;DHT22;5715;48.234;14.320;2024-03-08T07:42:31;4.10;99.90
11320;DHT22;5715;48.234;14.320;2024-03-08T07:45:19;4.20;99.90
11320;DHT22;5715;48.234;14.320;2024-03-08T07:48:07;4.30;99.90
11320;DHT22;5715;48.234;14.320;2024-03-08T07:50:57;4.30;99.90
11320;DHT22;5715;48.234;14.320;2024-03-08T07:53:45;4.40;99.90
11320;DHT22;5715;48.234;14.320;2024-03-08T07:56:33;4.50;99.90
11320;DHT22;5715;48.234;14.320;2024-03-08T07:59:22;4.60;99.90
11320;DHT22;5715;48.234;14.320;2024-03-08T08:02:10;4.80;99.90
11320;DHT22;5715;48.234;14.320;2024-03-08T08:04:58;4.90;99.90
11320;DHT22;5715;48.234;14.320;2024-03-08T08:07:46;4.90;99.90
11320;DHT22;5715;48.234;14.320;2024-03-08T08:10:39;5.00;99.90
11320;DHT22;5715;48.234;14.320;2024-03-08T08:13:26;5.00;99.90
11320;DHT22;5715;48.234;14.320;2024-03-08T08:16:15;5.10;99.90
11320;DHT22;5715;48.234;14.320;2024-03-08T08:19:03;5.10;99.90
11320;DHT22;5715;48.234;14.320;2024-03-08T08:21:54;5.10;99.90
11320;DHT22;5715;48.234;14.320;2024-03-08T08:24:43;5.20;99.90
11320;DHT22;5715;48.234;14.320;2024-03-08T08:27:30;5.20;99.90
11320;DHT22;5715;48.234;14.320;2024-03-08T08:30:18;5.30;99.90
11320;DHT22;5715;48.234;14.320;2024-03-08T08:33:06;5.40;99.90
11320;DHT22;5715;48.234;14.320;2024-03-08T08:35:56;5.50;99.90
11320;DHT22;5715;48.234;14.320;2024-03-08T08:38:43;5.60;99.90
11320;DHT22;5715;48.234;14.320;2024-03-08T08:41:33;5.70;99.90
11320;DHT22;5715;48.234;14.320;2024-03-08T08:44:21;5.90;99.90
11320;DHT22;5715;48.234;14.320;2024-03-08T08:47:09;6.00;99.90
11320;DHT22;5715;48.234;14.320;2024-03-08T08:50:03;6.10;99.90
11320;DHT22;5715;48.234;14.320;2024-03-08T08:52:55;6.30;99.90
11320;DHT22;5715;48.234;14.320;2024-03-08T08:55:43;6.50;99.90
11320;DHT22;5715;48.234;14.320;2024-03-08T08:58:33;6.40;99.90
11320;DHT22;5715;48.234;14.320;2024-03-08T09:01:20;6.40;99.90
11320;DHT22;5715;48.234;14.320;2024-03-08T09:04:08;6.50;99.90
11320;DHT22;5715;48.234;14.320;2024-03-08T09:06:58;6.50;99.90
11320;DHT22;5715;48.234;14.320;2024-03-08T09:09:46;6.60;99.90
11320;DHT22;5715;48.234;14.320;2024-03-08T09:12:34;6.60;99.90
11320;DHT22;5715;48.234;14.320;2024-03-08T09:15:21;6.60;99.90
11320;DHT22;5715;48.234;14.320;2024-03-08T09:18:09;6.60;99.90
11320;DHT22;5715;48.234;14.320;2024-03-08T09:20:58;6.60;99.90
11320;DHT22;5715;48.234;14.320;2024-03-08T09:23:46;6.80;99.90
11320;DHT22;5715;48.234;14.320;2024-03-08T09:26:34;6.70;99.90
11320;DHT22;5715;48.234;14.320;2024-03-08T09:29:22;6.70;99.90
11320;DHT22;5715;48.234;14.320;2024-03-08T09:32:10;6.90;99.90
11320;DHT22;5715;48.234;14.320;2024-03-08T09:34:58;7.10;99.90
11320;DHT22;5715;48.234;14.320;2024-03-08T09:37:48;7.10;99.90
11320;DHT22;5715;48.234;14.320;2024-03-08T09:40:41;7.10;99.90
11320;DHT22;5715;48.234;14.320;2024-03-08T09:43:29;6.90;99.90
11320;DHT22;5715;48.234;14.320;2024-03-08T09:46:19;6.90;99.90
11320;DHT22;5715;48.234;14.320;2024-03-08T09:49:10;7.00;99.90
11320;DHT22;5715;48.234;14.320;2024-03-08T09:51:59;7.00;99.90
11320;DHT22;5715;48.234;14.320;2024-03-08T09:54:47;7.10;99.90
11320;DHT22;5715;48.234;14.320;2024-03-08T09:57:36;7.10;99.90
11320;DHT22;5715;48.234;14.320;2024-03-08T10:00:25;7.30;99.90
11320;DHT22;5715;48.234;14.320;2024-03-08T10:03:13;7.40;99.90
11320;DHT22;5715;48.234;14.320;2024-03-08T10:06:01;7.40;99.90
11320;DHT22;5715;48.234;14.320;2024-03-08T10:08:50;7.40;99.90
11320;DHT22;5715;48.234;14.320;2024-03-08T10:11:41;7.50;99.90
11320;DHT22;5715;48.234;14.320;2024-03-08T10:14:29;7.60;99.90
11320;DHT22;5715;48.234;14.320;2024-03-08T10:17:19;7.50;99.90
11320;DHT22;5715;48.234;14.320;2024-03-08T10:20:17;7.60;99.90
11320;DHT22;5715;48.234;14.320;2024-03-08T10:23:06;7.70;99.90
11320;DHT22;5715;48.234;14.320;2024-03-08T10:25:58;7.90;99.90
11320;DHT22;5715;48.234;14.320;2024-03-08T10:28:57;7.90;99.90
11320;DHT22;5715;48.234;14.320;2024-03-08T10:31:45;8.10;99.90
11320;DHT22;5715;48.234;14.320;2024-03-08T10:34:33;8.10;99.90
11320;DHT22;5715;48.234;14.320;2024-03-08T10:37:22;8.00;99.90
11320;DHT22;5715;48.234;14.320;2024-03-08T10:40:19;8.10;99.90
11320;DHT22;5715;48.234;14.320;2024-03-08T10:43:11;8.20;99.90
11320;DHT22;5715;48.234;14.320;2024-03-08T10:46:37;8.20;99.90
11320;DHT22;5715;48.234;14.320;2024-03-08T10:49:32;8.20;99.90
11320;DHT22;5715;48.234;14.320;2024-03-08T10:52:26;8.30;99.90
11320;DHT22;5715;48.234;14.320;2024-03-08T10:55:15;8.20;99.90
11320;DHT22;5715;48.234;14.320;2024-03-08T10:58:04;8.20;99.90
11320;DHT22;5715;48.234;14.320;2024-03-08T11:00:54;8.30;99.90
11320;DHT22;5715;48.234;14.320;2024-03-08T11:03:44;8.40;99.90
11320;DHT22;5715;48.234;14.320;2024-03-08T11:09:31;8.50;99.90
11320;DHT22;5715;48.234;14.320;2024-03-08T11:15:11;8.70;99.90
11320;DHT22;5715;48.234;14.320;2024-03-08T11:18:00;8.80;99.90
11320;DHT22;5715;48.234;14.320;2024-03-08T11:20:48;8.90;99.90
11320;DHT22;5715;48.234;14.320;2024-03-08T11:23:37;9.00;99.90
11320;DHT22;5715;48.234;14.320;2024-03-08T11:26:28;9.00;99.90
11320;DHT22;5715;48.234;14.320;2024-03-08T11:32:19;8.90;99.90
11320;DHT22;5715;48.234;14.320;2024-03-08T11:35:19;8.90;99.90
11320;DHT22;5715;48.234;14.320;2024-03-08T11:38:09;9.10;99.90
11320;DHT22;5715;48.234;14.320;2024-03-08T11:40:57;9.30;99.90
11320;DHT22;5715;48.234;14.320;2024-03-08T11:43:48;9.40;99.90
11320;DHT22;5715;48.234;14.320;2024-03-08T11:46:36;9.30;99.90
11320;DHT22;5715;48.234;14.320;2024-03-08T11:49:26;9.30;99.90
11320;DHT22;5715;48.234;14.320;2024-03-08T11:52:16;9.30;99.90
11320;DHT22;5715;48.234;14.320;2024-03-08T11:55:06;9.30;99.90
11320;DHT22;5715;48.234;14.320;2024-03-08T11:58:03;9.40;99.90
11320;DHT22;5715;48.234;14.320;2024-03-08T12:01:03;9.50;99.90
11320;DHT22;5715;48.234;14.320;2024-03-08T12:03:56;9.50;99.90
11320;DHT22;5715;48.234;14.320;2024-03-08T12:06:48;9.50;99.90
11320;DHT22;5715;48.234;14.320;2024-03-08T12:09:36;9.50;99.90
11320;DHT22;5715;48.234;14.320;2024-03-08T12:12:24;9.50;99.90
11320;DHT22;5715;48.234;14.320;2024-03-08T12:15:15;9.70;99.90
11320;DHT22;5715;48.234;14.320;2024-03-08T12:18:05;9.70;99.90
11320;DHT22;5715;48.234;14.320;2024-03-08T12:21:11;9.80;99.90
11320;DHT22;5715;48.234;14.320;2024-03-08T12:24:06;9.80;99.90
11320;DHT22;5715;48.234;14.320;2024-03-08T12:26:56;9.80;99.90
11320;DHT22;5715;48.234;14.320;2024-03-08T12:29:44;9.70;99.90
11320;DHT22;5715;48.234;14.320;2024-03-08T12:32:32;9.60;99.90
11320;DHT22;5715;48.234;14.320;2024-03-08T12:35:24;9.70;99.90
11320;DHT22;5715;48.234;14.320;2024-03-08T12:38:16;9.60;99.90
11320;DHT22;5715;48.234;14.320;2024-03-08T12:41:03;9.60;99.90
11320;DHT22;5715;48.234;14.320;2024-03-08T12:43:52;9.70;99.90
11320;DHT22;5715;48.234;14.320;2024-03-08T12:46:39;9.60;99.90
11320;DHT22;5715;48.234;14.320;2024-03-08T12:49:27;9.60;99.90
11320;DHT22;5715;48.234;14.320;2024-03-08T12:52:15;9.60;99.90
11320;DHT22;5715;48.234;14.320;2024-03-08T12:55:05;9.90;99.90
11320;DHT22;5715;48.234;14.320;2024-03-08T12:57:54;10.00;99.90
11320;DHT22;5715;48.234;14.320;2024-03-08T13:00:41;9.90;99.90
11320;DHT22;5715;48.234;14.320;2024-03-08T13:03:31;9.90;99.90
11320;DHT22;5715;48.234;14.320;2024-03-08T13:06:19;10.00;99.90
11320;DHT22;5715;48.234;14.320;2024-03-08T13:09:11;10.00;99.90
11320;DHT22;5715;48.234;14.320;2024-03-08T13:11:59;10.10;99.90
11320;DHT22;5715;48.234;14.320;2024-03-08T13:14:48;10.10;99.90
11320;DHT22;5715;48.234;14.320;2024-03-08T13:17:35;9.90;99.90
11320;DHT22;5715;48.234;14.320;2024-03-08T13:20:24;10.00;99.90
11320;DHT22;5715;48.234;14.320;2024-03-08T13:23:24;10.20;99.90
11320;DHT22;5715;48.234;14.320;2024-03-08T13:26:12;10.20;99.90
11320;DHT22;5715;48.234;14.320;2024-03-08T13:29:02;10.30;99.90
11320;DHT22;5715;48.234;14.320;2024-03-08T13:31:50;10.50;99.90
11320;DHT22;5715;48.234;14.320;2024-03-08T13:34:43;10.50;99.90
11320;DHT22;5715;48.234;14.320;2024-03-08T13:37:35;10.50;99.90
11320;DHT22;5715;48.234;14.320;2024-03-08T13:40:22;10.40;99.90
11320;DHT22;5715;48.234;14.320;2024-03-08T13:43:10;10.40;99.90
11320;DHT22;5715;48.234;14.320;2024-03-08T13:45:58;10.50;99.90
11320;DHT22;5715;48.234;14.320;2024-03-08T13:48:46;10.30;99.90
11320;DHT22;5715;48.234;14.320;2024-03-08T13:51:35;10.20;99.90
11320;DHT22;5715;48.234;14.320;2024-03-08T13:54:23;10.30;99.90
11320;DHT22;5715;48.234;14.320;2024-03-08T13:57:11;10.30;99.90
11320;DHT22;5715;48.234;14.320;2024-03-08T13:59:59;10.30;99.90
11320;DHT22;5715;48.234;14.320;2024-03-08T14:02:47;10.30;99.90
11320;DHT22;5715;48.234;14.320;2024-03-08T14:05:39;10.40;99.90
11320;DHT22;5715;48.234;14.320;2024-03-08T14:08:27;10.40;99.90
11320;DHT22;5715;48.234;14.320;2024-03-08T14:11:15;10.50;99.90
11320;DHT22;5715;48.234;14.320;2024-03-08T14:14:06;10.50;99.90
11320;DHT22;5715;48.234;14.320;2024-03-08T14:16:56;10.50;99.90
11320;DHT22;5715;48.234;14.320;2024-03-08T14:19:47;10.50;99.90
11320;DHT22;5715;48.234;14.320;2024-03-08T14:22:34;10.50;99.90
11320;DHT22;5715;48.234;14.320;2024-03-08T14:25:23;10.50;99.90
11320;DHT22;5715;48.234;14.320;2024-03-08T14:28:11;10.40;99.90
11320;DHT22;5715;48.234;14.320;2024-03-08T14:30:59;10.40;99.90
11320;DHT22;5715;48.234;14.320;2024-03-08T14:33:53;10.30;99.90
11320;DHT22;5715;48.234;14.320;2024-03-08T14:36:42;10.20;99.90
11320;DHT22;5715;48.234;14.320;2024-03-08T14:39:30;10.20;99.90
11320;DHT22;5715;48.234;14.320;2024-03-08T14:42:20;10.30;99.90
11320;DHT22;5715;48.234;14.320;2024-03-08T14:45:09;10.20;99.90
11320;DHT22;5715;48.234;14.320;2024-03-08T14:47:57;10.20;99.90
11320;DHT22;5715;48.234;14.320;2024-03-08T14:50:45;10.20;99.90
11320;DHT22;5715;48.234;14.320;2024-03-08T14:53:35;10.20;99.90
11320;DHT22;5715;48.234;14.320;2024-03-08T14:56:22;10.20;99.90
11320;DHT22;5715;48.234;14.320;2024-03-08T14:59:14;10.20;99.90
11320;DHT22;5715;48.234;14.320;2024-03-08T15:02:02;10.10;99.90
11320;DHT22;5715;48.234;14.320;2024-03-08T15:04:54;10.10;99.90
11320;DHT22;5715;48.234;14.320;2024-03-08T15:07:48;10.00;99.90
11320;DHT22;5715;48.234;14.320;2024-03-08T15:10:37;10.10;99.90
11320;DHT22;5715;48.234;14.320;2024-03-08T15:13:27;10.00;99.90
11320;DHT22;5715;48.234;14.320;2024-03-08T15:16:26;10.00;99.90
11320;DHT22;5715;48.234;14.320;2024-03-08T15:19:14;10.00;99.90
11320;DHT22;5715;48.234;14.320;2024-03-08T15:22:03;10.00;99.90
11320;DHT22;5715;48.234;14.320;2024-03-08T15:24:50;10.00;99.90
11320;DHT22;5715;48.234;14.320;2024-03-08T15:27:38;10.00;99.90
11320;DHT22;5715;48.234;14.320;2024-03-08T15:30:28;9.90;99.90
11320;DHT22;5715;48.234;14.320;2024-03-08T15:33:16;9.90;99.90
11320;DHT22;5715;48.234;14.320;2024-03-08T15:36:11;9.80;99.90
11320;DHT22;5715;48.234;14.320;2024-03-08T15:39:01;9.70;99.90
11320;DHT22;5715;48.234;14.320;2024-03-08T15:41:50;9.70;99.90
11320;DHT22;5715;48.234;14.320;2024-03-08T15:44:39;9.60;99.90
11320;DHT22;5715;48.234;14.320;2024-03-08T15:47:28;9.50;99.90
11320;DHT22;5715;48.234;14.320;2024-03-08T15:50:16;9.50;99.90
11320;DHT22;5715;48.234;14.320;2024-03-08T15:53:05;9.50;99.90
11320;DHT22;5715;48.234;14.320;2024-03-08T15:55:53;9.40;99.90
11320;DHT22;5715;48.234;14.320;2024-03-08T15:58:41;9.40;99.90
11320;DHT22;5715;48.234;14.320;2024-03-08T16:01:29;9.30;99.90
11320;DHT22;5715;48.234;14.320;2024-03-08T16:04:18;9.40;99.90
11320;DHT22;5715;48.234;14.320;2024-03-08T16:07:08;9.30;99.90
11320;DHT22;5715;48.234;14.320;2024-03-08T16:09:55;9.20;99.90
11320;DHT22;5715;48.234;14.320;2024-03-08T16:12:43;9.20;99.90
11320;DHT22;5715;48.234;14.320;2024-03-08T16:15:31;9.20;99.90
11320;DHT22;5715;48.234;14.320;2024-03-08T16:18:19;9.10;99.90
11320;DHT22;5715;48.234;14.320;2024-03-08T16:21:12;9.10;99.90
11320;DHT22;5715;48.234;14.320;2024-03-08T16:24:00;9.00;99.90
11320;DHT22;5715;48.234;14.320;2024-03-08T16:26:47;9.00;99.90
11320;DHT22;5715;48.234;14.320;2024-03-08T16:29:38;9.00;99.90
11320;DHT22;5715;48.234;14.320;2024-03-08T16:32:26;8.90;99.90
11320;DHT22;5715;48.234;14.320;2024-03-08T16:35:13;8.90;99.90
11320;DHT22;5715;48.234;14.320;2024-03-08T16:38:03;8.80;99.90
11320;DHT22;5715;48.234;14.320;2024-03-08T16:40:51;8.80;99.90
11320;DHT22;5715;48.234;14.320;2024-03-08T16:43:39;8.80;99.90
11320;DHT22;5715;48.234;14.320;2024-03-08T16:46:27;8.70;99.90
11320;DHT22;5715;48.234;14.320;2024-03-08T16:49:21;8.70;99.90
11320;DHT22;5715;48.234;14.320;2024-03-08T16:52:08;8.60;99.90
11320;DHT22;5715;48.234;14.320;2024-03-08T16:54:56;8.60;99.90
11320;DHT22;5715;48.234;14.320;2024-03-08T16:57:53;8.50;99.90
11320;DHT22;5715;48.234;14.320;2024-03-08T17:00:41;8.40;99.90
11320;DHT22;5715;48.234;14.320;2024-03-08T17:03:29;8.40;99.90
11320;DHT22;5715;48.234;14.320;2024-03-08T17:06:22;8.20;99.90
11320;DHT22;5715;48.234;14.320;2024-03-08T17:09:10;8.20;99.90
11320;DHT22;5715;48.234;14.320;2024-03-08T17:12:01;8.10;99.90
11320;DHT22;5715;48.234;14.320;2024-03-08T17:14:49;8.10;99.90
11320;DHT22;5715;48.234;14.320;2024-03-08T17:17:38;8.10;99.90
11320;DHT22;5715;48.234;14.320;2024-03-08T17:20:27;8.00;99.90
11320;DHT22;5715;48.234;14.320;2024-03-08T17:23:15;7.90;99.90
11320;DHT22;5715;48.234;14.320;2024-03-08T17:26:04;7.90;99.90
11320;DHT22;5715;48.234;14.320;2024-03-08T17:28:55;7.80;99.90
11320;DHT22;5715;48.234;14.320;2024-03-08T17:31:46;7.70;99.90
11320;DHT22;5715;48.234;14.320;2024-03-08T17:34:34;7.70;99.90
11320;DHT22;5715;48.234;14.320;2024-03-08T17:37:22;7.70;99.90
11320;DHT22;5715;48.234;14.320;2024-03-08T17:40:10;7.60;99.90
11320;DHT22;5715;48.234;14.320;2024-03-08T17:42:59;7.50;99.90
11320;DHT22;5715;48.234;14.320;2024-03-08T17:45:48;7.50;99.90
11320;DHT22;5715;48.234;14.320;2024-03-08T17:48:36;7.50;99.90
11320;DHT22;5715;48.234;14.320;2024-03-08T17:51:23;7.50;99.90
11320;DHT22;5715;48.234;14.320;2024-03-08T17:54:11;7.40;99.90
11320;DHT22;5715;48.234;14.320;2024-03-08T17:57:01;7.30;99.90
11320;DHT22;5715;48.234;14.320;2024-03-08T17:59:49;7.30;99.90
11320;DHT22;5715;48.234;14.320;2024-03-08T18:02:38;7.20;99.90
11320;DHT22;5715;48.234;14.320;2024-03-08T18:05:28;7.20;99.90
11320;DHT22;5715;48.234;14.320;2024-03-08T18:08:20;7.20;99.90
11320;DHT22;5715;48.234;14.320;2024-03-08T18:11:07;7.00;99.90
11320;DHT22;5715;48.234;14.320;2024-03-08T18:13:55;7.00;99.90